createdAt,value
2022-08-16T00:00:26.846Z,6.71
2022-08-16T00:03:13.254Z,6.90
2022-08-16T00:06:12.974Z,6.84
2022-08-16T00:08:56.808Z,7.06
2022-08-16T00:22:13.460Z,7.13
2022-08-16T00:24:50.149Z,6.81
2022-08-16T00:27:25.846Z,7.05
2022-08-16T00:30:19.603Z,6.91
2022-08-16T00:33:15.785Z,6.69
2022-08-16T00:35:49.409Z,6.64
2022-08-16T00:48:45.609Z,6.81
2022-08-16T00:51:29.502Z,6.83
2022-08-16T00:54:03.908Z,6.68
2022-08-16T00:56:58.301Z,6.82
2022-08-16T00:59:37.964Z,6.74
2022-08-16T01:02:36.990Z,6.70
2022-08-16T01:05:13.619Z,6.70
2022-08-16T01:15:03.848Z,6.59
2022-08-16T01:17:37.882Z,6.69
2022-08-16T01:20:30.812Z,6.96
2022-08-16T01:23:17.496Z,6.60
2022-08-16T01:26:34.974Z,6.78
2022-08-16T01:28:57.951Z,6.84
2022-08-16T01:41:56.769Z,6.50
2022-08-16T01:44:38.454Z,6.55
2022-08-16T01:47:12.497Z,6.22
2022-08-16T01:50:42.000Z,6.27
2022-08-16T01:52:46.356Z,6.62
2022-08-16T01:55:54.297Z,6.67
2022-08-16T02:09:12.834Z,6.59
2022-08-16T02:11:53.195Z,6.95
2022-08-16T02:14:36.810Z,6.86
2022-08-16T02:17:12.766Z,6.91
2022-08-16T02:19:59.093Z,7.03
2022-08-16T02:22:36.853Z,6.65
2022-08-16T02:25:52.421Z,6.57
2022-08-16T02:35:34.758Z,6.83
2022-08-16T02:38:44.234Z,7.02
2022-08-16T02:41:22.582Z,7.02
2022-08-16T02:43:56.784Z,6.94
2022-08-16T02:46:33.661Z,6.66
2022-08-16T02:49:09.815Z,7.29
2022-08-16T03:02:31.728Z,7.02
2022-08-16T03:05:09.874Z,7.15
2022-08-16T03:07:51.938Z,7.38
2022-08-16T03:10:33.507Z,7.11
2022-08-16T03:13:15.778Z,7.38
2022-08-16T03:15:49.800Z,7.39
2022-08-16T03:28:47.789Z,7.44
2022-08-16T03:31:34.519Z,7.46
2022-08-16T03:34:09.505Z,7.49
2022-08-16T03:36:54.934Z,7.79
2022-08-16T03:39:28.935Z,7.81
2022-08-16T03:42:04.759Z,7.41
2022-08-16T03:44:47.645Z,7.32
2022-08-16T03:57:58.753Z,7.89
2022-08-16T04:00:48.868Z,7.80
2022-08-16T04:03:35.170Z,7.63
2022-08-16T04:06:10.822Z,7.52
2022-08-16T04:08:45.534Z,7.67
2022-08-16T04:24:16.828Z,7.40
2022-08-16T04:26:50.762Z,7.80
2022-08-16T04:29:25.216Z,7.31
2022-08-16T04:32:00.094Z,7.73
2022-08-16T04:34:44.773Z,7.72
2022-08-16T04:51:21.791Z,8.18
2022-08-16T04:54:02.784Z,7.73
2022-08-16T04:56:42.856Z,8.03
2022-08-16T04:59:29.542Z,8.26
2022-08-16T05:02:03.722Z,7.90
2022-08-16T05:05:03.825Z,7.78
2022-08-16T05:18:16.674Z,8.06
2022-08-16T05:21:01.475Z,8.17
2022-08-16T05:23:58.549Z,8.20
2022-08-16T05:26:35.770Z,8.08
2022-08-16T05:29:14.786Z,8.24
2022-08-16T05:42:45.958Z,8.41
2022-08-16T05:45:23.241Z,8.34
2022-08-16T05:48:01.825Z,8.08
2022-08-16T05:50:57.946Z,8.28
2022-08-16T05:53:38.849Z,8.18
2022-08-16T06:09:42.972Z,8.22
2022-08-16T06:12:28.943Z,8.23
2022-08-16T06:15:16.588Z,8.43
2022-08-16T06:17:57.882Z,8.59
2022-08-16T06:20:35.969Z,8.55
2022-08-16T06:23:34.861Z,8.75
2022-08-16T06:26:13.061Z,8.62
2022-08-16T06:36:03.922Z,8.62
2022-08-16T06:38:55.740Z,8.76
2022-08-16T06:42:14.942Z,8.66
2022-08-16T06:45:19.261Z,8.59
2022-08-16T06:48:10.730Z,8.69
2022-08-16T06:50:45.289Z,8.34
2022-08-16T07:03:55.511Z,8.76
2022-08-16T07:06:43.236Z,8.77
2022-08-16T07:09:17.923Z,8.53
2022-08-16T07:11:54.922Z,8.52
2022-08-16T07:14:40.942Z,8.68
2022-08-16T07:31:04.942Z,8.44
2022-08-16T07:33:53.538Z,8.87
2022-08-16T07:36:39.881Z,9.00
2022-08-16T07:39:15.043Z,8.17
2022-08-16T07:41:50.864Z,8.71
2022-08-16T07:44:28.509Z,8.73
2022-08-16T07:58:00.696Z,8.27
2022-08-16T08:00:44.917Z,8.67
2022-08-16T08:03:20.890Z,8.52
2022-08-16T08:05:57.906Z,8.28
2022-08-16T08:08:50.284Z,8.48
2022-08-16T08:25:16.179Z,8.31
2022-08-16T08:27:51.022Z,8.28
2022-08-16T08:30:51.909Z,8.16
2022-08-16T08:33:37.441Z,7.93
2022-08-16T08:49:55.104Z,8.35
2022-08-16T08:52:35.426Z,8.21
2022-08-16T08:57:53.521Z,8.07
2022-08-16T09:00:51.338Z,7.96
2022-08-16T09:03:26.642Z,8.16
2022-08-16T09:06:13.902Z,8.00
2022-08-16T09:17:01.646Z,8.23
2022-08-16T09:19:34.086Z,8.15
2022-08-16T09:22:19.856Z,8.09
2022-08-16T09:25:10.190Z,8.10
2022-08-16T09:27:57.046Z,7.60
2022-08-16T09:30:43.896Z,8.01
2022-08-16T09:43:59.519Z,8.02
2022-08-16T09:46:49.220Z,7.97
2022-08-16T09:49:37.142Z,8.15
2022-08-16T09:52:11.881Z,7.86
2022-08-16T09:54:47.066Z,8.23
2022-08-16T09:57:24.662Z,8.19
2022-08-16T10:00:42.296Z,8.23
2022-08-16T10:10:30.985Z,7.56
2022-08-16T10:13:11.843Z,7.33
2022-08-16T10:15:55.609Z,7.68
2022-08-16T10:19:06.331Z,7.24
2022-08-16T10:21:35.660Z,7.03
2022-08-16T10:24:14.181Z,6.79
2022-08-16T10:37:40.910Z,7.23
2022-08-16T10:40:29.119Z,7.04
2022-08-16T10:43:18.443Z,5.89
2022-08-16T10:46:00.435Z,5.64
2022-08-16T10:48:41.860Z,5.51
2022-08-16T10:51:33.516Z,5.24
2022-08-16T11:08:05.432Z,5.28
2022-08-16T11:11:07.605Z,4.65
2022-08-16T11:14:11.476Z,4.78
2022-08-16T11:30:19.702Z,5.04
2022-08-16T11:33:01.900Z,4.63
2022-08-16T11:36:22.592Z,4.72
2022-08-16T11:38:51.609Z,4.72
2022-08-16T11:41:32.400Z,4.68
2022-08-16T11:44:06.889Z,4.85
2022-08-16T11:57:19.760Z,5.02
2022-08-16T11:59:55.720Z,4.57
2022-08-16T12:02:33.023Z,4.72
2022-08-16T12:05:11.461Z,5.03
2022-08-16T12:07:52.920Z,4.79
2022-08-16T12:10:28.841Z,4.81
2022-08-16T12:23:44.861Z,5.23
2022-08-16T12:26:24.920Z,5.37
2022-08-16T12:28:59.042Z,5.08
2022-08-16T12:31:34.481Z,5.62
2022-08-16T12:34:09.760Z,5.36
2022-08-16T12:36:59.921Z,5.40
2022-08-16T12:39:36.273Z,5.81
2022-08-16T12:52:33.028Z,5.49
2022-08-16T12:55:16.903Z,5.66
2022-08-16T12:57:57.879Z,5.56
2022-08-16T13:00:41.798Z,5.57
2022-08-16T13:03:16.728Z,5.53
2022-08-16T13:05:55.459Z,5.30
2022-08-16T13:19:07.920Z,5.29
2022-08-16T13:21:43.821Z,5.03
2022-08-16T13:26:53.257Z,5.25
2022-08-16T13:29:21.040Z,5.22
2022-08-16T13:45:44.817Z,5.51
2022-08-16T13:48:24.538Z,5.37
2022-08-16T13:51:06.941Z,5.39
2022-08-16T13:53:42.266Z,5.18
2022-08-16T13:56:21.910Z,5.64
2022-08-16T13:58:59.931Z,5.29
2022-08-16T14:11:53.211Z,5.53
2022-08-16T14:14:35.943Z,5.44
2022-08-16T14:17:11.661Z,5.62
2022-08-16T14:19:46.276Z,5.63
2022-08-16T14:22:31.177Z,5.59
2022-08-16T14:25:18.840Z,5.84
2022-08-16T14:38:37.505Z,5.92
2022-08-16T14:41:13.820Z,5.87
2022-08-16T14:43:47.901Z,5.74
2022-08-16T14:46:21.861Z,5.84
2022-08-16T14:48:55.963Z,6.00
2022-08-16T15:04:49.435Z,5.86
2022-08-16T15:07:34.973Z,5.75
2022-08-16T15:10:21.620Z,5.51
2022-08-16T15:13:05.961Z,5.55
2022-08-16T15:15:44.582Z,5.73
2022-08-16T15:18:39.193Z,5.76
2022-08-16T15:21:16.120Z,5.78
2022-08-16T15:31:00.373Z,5.22
2022-08-16T15:33:43.377Z,5.19
2022-08-16T15:36:28.921Z,5.34
2022-08-16T15:39:27.961Z,5.16
2022-08-16T15:42:11.920Z,5.42
2022-08-16T15:45:03.101Z,5.40
2022-08-16T15:58:35.412Z,4.79
2022-08-16T16:01:11.029Z,4.49
2022-08-16T16:03:47.833Z,4.40
2022-08-16T16:06:29.941Z,4.21
2022-08-16T16:09:03.961Z,4.36
2022-08-16T16:25:30.087Z,4.41
2022-08-16T16:28:04.607Z,4.93
2022-08-16T16:30:56.999Z,4.81
2022-08-16T16:33:35.902Z,4.92
2022-08-16T16:36:25.564Z,5.08
2022-08-16T16:39:08.241Z,4.79
2022-08-16T16:52:07.661Z,4.40
2022-08-16T16:54:47.940Z,4.30
2022-08-16T16:57:24.061Z,3.85
2022-08-16T16:59:58.938Z,4.06
2022-08-16T17:02:49.653Z,3.58
2022-08-16T17:05:34.961Z,3.39
2022-08-16T17:19:15.445Z,3.36
2022-08-16T17:21:42.861Z,3.06
2022-08-16T17:24:17.450Z,3.17
2022-08-16T17:26:56.076Z,3.05
2022-08-16T17:29:42.807Z,3.05
2022-08-16T17:46:51.603Z,3.45
2022-08-16T17:49:24.967Z,3.53
2022-08-16T17:51:58.940Z,3.50
2022-08-16T17:54:33.940Z,3.61
2022-08-16T17:57:07.861Z,3.42
2022-08-16T17:59:41.961Z,3.80
2022-08-16T18:13:00.142Z,3.82
2022-08-16T18:15:34.901Z,3.63
2022-08-16T18:18:09.035Z,3.75
2022-08-16T18:20:43.932Z,3.71
2022-08-16T18:23:22.941Z,3.45
2022-08-16T18:26:01.022Z,3.77
2022-08-16T18:38:58.929Z,3.41
2022-08-16T18:41:39.981Z,3.59
2022-08-16T18:44:26.720Z,4.05
2022-08-16T18:49:40.701Z,3.68
2022-08-16T19:05:44.962Z,3.70
2022-08-16T19:08:18.781Z,3.66
2022-08-16T19:10:55.941Z,3.90
2022-08-16T19:13:30.743Z,3.59
2022-08-16T19:16:08.021Z,3.56
2022-08-16T19:18:41.842Z,3.82
2022-08-16T19:21:18.981Z,3.71
2022-08-16T19:31:45.901Z,3.86
2022-08-16T19:34:25.982Z,3.82
2022-08-16T19:37:01.721Z,3.68
2022-08-16T19:39:36.017Z,3.80
2022-08-16T19:42:15.224Z,3.61
2022-08-16T19:44:59.961Z,3.59
2022-08-16T19:58:31.942Z,3.94
2022-08-16T20:01:06.122Z,4.25
2022-08-16T20:03:39.966Z,4.11
2022-08-16T20:06:13.944Z,4.01
2022-08-16T20:09:15.643Z,4.12
2022-08-16T20:11:53.522Z,4.30
2022-08-16T20:14:35.989Z,4.32
2022-08-16T20:25:07.923Z,4.74
2022-08-16T20:27:49.023Z,4.76
2022-08-16T20:30:26.402Z,4.66
2022-08-16T20:33:07.981Z,5.03
2022-08-16T20:35:43.423Z,5.03
2022-08-16T20:38:17.963Z,5.24
2022-08-16T20:40:51.991Z,4.96
2022-08-16T20:53:42.923Z,5.05
2022-08-16T20:56:23.947Z,5.04
2022-08-16T20:58:57.784Z,4.99
2022-08-16T21:01:45.720Z,4.95
2022-08-16T21:04:27.683Z,5.19
2022-08-16T21:20:49.942Z,5.21
2022-08-16T21:23:23.702Z,5.38
2022-08-16T21:25:59.794Z,5.35
2022-08-16T21:28:41.553Z,5.17
2022-08-16T21:31:24.962Z,5.17
2022-08-16T21:33:58.823Z,5.37
2022-08-16T21:36:36.330Z,5.33
2022-08-16T21:46:48.902Z,5.32
2022-08-16T21:49:28.925Z,5.09
2022-08-16T21:52:06.922Z,5.09
2022-08-16T21:54:46.983Z,5.02
2022-08-16T21:57:21.242Z,5.24
2022-08-16T21:59:58.021Z,5.09
2022-08-16T22:13:25.963Z,5.50
2022-08-16T22:16:02.562Z,5.07
2022-08-16T22:18:36.984Z,5.57
2022-08-16T22:21:10.984Z,5.49
2022-08-16T22:23:45.022Z,5.46
2022-08-16T22:26:33.429Z,5.35
2022-08-16T22:39:37.986Z,5.36
2022-08-16T22:42:19.002Z,5.35
2022-08-16T22:44:52.864Z,5.42
2022-08-16T22:47:26.961Z,5.41
2022-08-16T22:50:00.741Z,5.36
2022-08-16T22:52:55.780Z,5.64
2022-08-16T22:55:32.492Z,5.04
2022-08-16T23:05:50.336Z,5.69
2022-08-16T23:08:32.169Z,5.78
2022-08-16T23:11:24.981Z,5.36
2022-08-16T23:13:59.040Z,5.55
2022-08-16T23:16:36.962Z,5.53
2022-08-16T23:19:13.361Z,5.42
2022-08-16T23:35:45.167Z,5.33
2022-08-16T23:38:37.096Z,5.60
2022-08-16T23:41:19.983Z,5.42
2022-08-16T23:43:53.960Z,5.65
2022-08-16T23:46:27.943Z,5.30
2022-08-16T23:59:52.539Z,5.48
